createdAt,value
2019-03-24T00:01:56.875Z,2.70
2019-03-24T00:04:01.295Z,2.70
2019-03-24T00:06:06.123Z,2.60
2019-03-24T00:08:10.873Z,2.60
2019-03-24T00:10:15.468Z,2.60
2019-03-24T00:12:20.569Z,2.60
2019-03-24T00:14:24.980Z,2.50
2019-03-24T00:16:29.467Z,2.50
2019-03-24T00:18:33.823Z,2.50
2019-03-24T00:20:38.166Z,2.50
2019-03-24T00:22:43.822Z,2.50
2019-03-24T00:24:48.239Z,2.50
2019-03-24T00:26:52.648Z,2.50
2019-03-24T00:28:57.005Z,2.50
2019-03-24T00:31:01.371Z,2.50
2019-03-24T00:33:05.774Z,2.50
2019-03-24T00:35:10.513Z,2.50
2019-03-24T00:37:14.886Z,2.40
2019-03-24T00:39:19.219Z,2.40
2019-03-24T00:41:23.724Z,2.40
2019-03-24T00:43:28.170Z,2.40
2019-03-24T00:45:36.735Z,2.40
2019-03-24T00:47:38.848Z,2.40
2019-03-24T00:49:43.597Z,2.40
2019-03-24T00:51:48.211Z,2.40
2019-03-24T00:53:52.767Z,2.40
2019-03-24T00:55:57.130Z,2.30
2019-03-24T00:58:01.608Z,2.20
2019-03-24T01:00:08.892Z,2.20
2019-03-24T01:02:14.880Z,2.20
2019-03-24T01:04:19.595Z,2.20
2019-03-24T01:06:32.096Z,2.20
2019-03-24T01:08:36.556Z,2.20
2019-03-24T01:10:41.155Z,2.20
2019-03-24T01:12:45.923Z,2.10
2019-03-24T01:14:50.255Z,2.20
2019-03-24T01:16:54.587Z,2.20
2019-03-24T01:18:59.031Z,2.10
2019-03-24T01:21:03.619Z,2.10
2019-03-24T01:23:08.111Z,2.10
2019-03-24T01:25:13.890Z,2.10
2019-03-24T01:27:18.297Z,2.20
2019-03-24T01:29:22.722Z,2.20
2019-03-24T01:31:27.147Z,2.20
2019-03-24T01:33:31.621Z,2.10
2019-03-24T01:35:36.032Z,2.10
2019-03-24T01:37:42.662Z,2.10
2019-03-24T01:39:47.024Z,2.10
2019-03-24T01:41:51.379Z,2.10
2019-03-24T01:43:55.980Z,2.20
2019-03-24T01:46:00.337Z,2.20
2019-03-24T01:48:04.879Z,2.10
2019-03-24T01:50:09.681Z,2.10
2019-03-24T01:52:14.303Z,2.10
2019-03-24T01:54:18.687Z,2.10
2019-03-24T01:56:23.027Z,2.00
2019-03-24T01:58:27.367Z,2.00
2019-03-24T02:00:31.922Z,2.00
2019-03-24T02:02:36.277Z,2.00
2019-03-24T02:04:40.958Z,1.90
2019-03-24T02:06:45.530Z,1.90
2019-03-24T02:08:49.879Z,1.90
2019-03-24T02:10:54.362Z,1.80
2019-03-24T02:13:17.808Z,1.80
2019-03-24T02:15:22.254Z,1.80
2019-03-24T02:17:26.659Z,1.80
2019-03-24T02:19:31.000Z,1.80
2019-03-24T02:21:35.877Z,1.70
2019-03-24T02:23:40.299Z,1.70
2019-03-24T02:25:44.866Z,1.70
2019-03-24T02:27:49.287Z,1.70
2019-03-24T02:29:53.669Z,1.70
2019-03-24T02:31:58.036Z,1.70
2019-03-24T02:34:02.477Z,1.70
2019-03-24T02:36:06.923Z,1.80
2019-03-24T02:38:11.399Z,1.80
2019-03-24T02:40:16.133Z,1.70
2019-03-24T02:42:20.549Z,1.70
2019-03-24T02:44:24.970Z,1.80
2019-03-24T02:46:29.332Z,1.80
2019-03-24T02:48:33.663Z,1.70
2019-03-24T02:50:56.963Z,1.70
2019-03-24T02:53:01.331Z,1.70
2019-03-24T02:55:06.398Z,1.80
2019-03-24T02:57:10.958Z,1.80
2019-03-24T02:59:15.480Z,1.80
2019-03-24T03:01:19.923Z,1.80
2019-03-24T03:03:24.267Z,1.80
2019-03-24T03:05:28.643Z,1.80
2019-03-24T03:07:33.076Z,1.70
2019-03-24T03:09:37.584Z,1.70
2019-03-24T03:11:42.326Z,1.70
2019-03-24T03:13:46.743Z,1.60
2019-03-24T03:15:51.144Z,1.50
2019-03-24T03:17:55.580Z,1.50
2019-03-24T03:19:59.920Z,1.60
2019-03-24T03:22:04.341Z,1.80
2019-03-24T03:24:08.863Z,2.00
2019-03-24T03:26:13.635Z,2.10
2019-03-24T03:28:18.114Z,2.20
2019-03-24T03:30:22.478Z,2.30
2019-03-24T03:32:26.960Z,2.40
2019-03-24T03:34:31.298Z,2.30
2019-03-24T03:36:35.689Z,2.30
2019-03-24T03:38:40.156Z,2.30
2019-03-24T03:40:45.761Z,2.20
2019-03-24T03:42:50.227Z,2.20
2019-03-24T03:44:54.732Z,2.20
2019-03-24T03:46:59.094Z,2.10
2019-03-24T03:49:03.671Z,2.10
2019-03-24T03:51:08.078Z,2.10
2019-03-24T03:53:14.059Z,2.10
2019-03-24T03:55:18.450Z,2.10
2019-03-24T03:57:22.840Z,2.00
2019-03-24T03:59:27.242Z,2.00
2019-03-24T04:01:31.728Z,1.90
2019-03-24T04:03:37.847Z,1.90
2019-03-24T04:05:42.764Z,1.90
2019-03-24T04:07:47.714Z,1.80
2019-03-24T04:09:52.055Z,1.70
2019-03-24T04:11:56.392Z,1.50
2019-03-24T04:14:00.770Z,1.50
2019-03-24T04:16:05.303Z,1.50
2019-03-24T04:18:10.253Z,1.50
2019-03-24T04:20:15.144Z,1.40
2019-03-24T04:22:19.569Z,1.50
2019-03-24T04:24:23.925Z,1.40
2019-03-24T04:26:28.611Z,1.30
2019-03-24T04:28:32.951Z,1.30
2019-03-24T04:30:37.503Z,1.30
2019-03-24T04:32:42.177Z,1.30
2019-03-24T04:34:46.805Z,1.20
2019-03-24T04:36:51.304Z,1.20
2019-03-24T04:38:55.660Z,1.20
2019-03-24T04:41:00.067Z,1.10
2019-03-24T04:43:04.416Z,1.10
2019-03-24T04:45:09.291Z,1.10
2019-03-24T04:47:16.869Z,1.10
2019-03-24T04:49:20.319Z,1.30
2019-03-24T04:51:24.668Z,1.30
2019-03-24T04:53:29.127Z,1.40
2019-03-24T04:55:33.538Z,1.40
2019-03-24T04:57:38.344Z,1.40
2019-03-24T04:59:43.212Z,1.40
2019-03-24T05:01:47.667Z,1.40
2019-03-24T05:03:52.029Z,1.40
2019-03-24T05:06:15.521Z,1.40
2019-03-24T05:08:20.072Z,1.50
2019-03-24T05:10:28.065Z,1.50
2019-03-24T05:12:32.487Z,1.60
2019-03-24T05:14:36.806Z,1.60
2019-03-24T05:16:41.302Z,1.80
2019-03-24T05:18:46.120Z,1.80
2019-03-24T05:20:50.477Z,1.90
2019-03-24T05:22:54.824Z,1.90
2019-03-24T05:24:59.220Z,2.00
2019-03-24T05:27:03.782Z,2.00
2019-03-24T05:29:08.147Z,2.00
2019-03-24T05:31:13.272Z,2.10
2019-03-24T05:33:17.819Z,2.10
2019-03-24T05:35:22.166Z,2.10
2019-03-24T05:37:26.498Z,2.20
2019-03-24T05:39:30.851Z,2.20
2019-03-24T05:41:35.200Z,2.20
2019-03-24T05:43:39.547Z,2.30
2019-03-24T05:45:44.671Z,2.30
2019-03-24T05:47:49.042Z,2.30
2019-03-24T05:49:53.388Z,2.40
2019-03-24T05:51:57.727Z,2.50
2019-03-24T05:54:02.245Z,2.60
2019-03-24T05:56:06.667Z,2.70
2019-03-24T05:58:11.026Z,2.80
2019-03-24T06:00:16.055Z,2.90
2019-03-24T06:02:20.399Z,3.00
2019-03-24T06:04:24.824Z,3.10
2019-03-24T06:06:29.251Z,3.10
2019-03-24T06:08:35.792Z,3.20
2019-03-24T06:10:40.149Z,3.30
2019-03-24T06:12:45.084Z,3.30
2019-03-24T06:14:53.328Z,3.40
2019-03-24T06:16:57.838Z,3.40
2019-03-24T06:19:04.846Z,3.40
2019-03-24T06:21:09.270Z,3.40
2019-03-24T06:23:14.251Z,3.50
2019-03-24T06:25:18.804Z,3.50
2019-03-24T06:27:23.159Z,3.60
2019-03-24T06:29:27.513Z,3.60
2019-03-24T06:31:31.947Z,3.70
2019-03-24T06:33:36.301Z,3.70
2019-03-24T06:35:40.735Z,3.60
2019-03-24T06:37:45.834Z,3.50
2019-03-24T06:39:50.168Z,3.60
2019-03-24T06:41:54.508Z,3.60
2019-03-24T06:43:58.923Z,3.70
2019-03-24T06:46:03.422Z,3.70
2019-03-24T06:48:07.957Z,3.80
2019-03-24T06:50:13.123Z,3.80
2019-03-24T06:52:17.854Z,3.90
2019-03-24T06:54:22.258Z,3.90
2019-03-24T06:56:26.624Z,4.00
2019-03-24T06:58:31.146Z,4.00
2019-03-24T07:00:35.595Z,4.20
2019-03-24T07:02:40.018Z,4.30
2019-03-24T07:04:45.085Z,4.40
2019-03-24T07:06:49.559Z,4.50
2019-03-24T07:08:53.966Z,4.60
2019-03-24T07:10:58.890Z,4.80
2019-03-24T07:13:05.005Z,4.90
2019-03-24T07:15:09.879Z,5.00
2019-03-24T07:17:14.996Z,5.20
2019-03-24T07:19:19.383Z,5.30
2019-03-24T07:21:24.042Z,5.30
2019-03-24T07:23:28.387Z,5.40
2019-03-24T07:25:32.738Z,5.60
2019-03-24T07:27:37.210Z,5.70
2019-03-24T07:29:41.547Z,5.80
2019-03-24T07:31:46.687Z,5.90
2019-03-24T07:33:51.050Z,5.90
2019-03-24T07:35:55.485Z,6.10
2019-03-24T07:37:59.868Z,6.10
2019-03-24T07:40:04.707Z,6.10
2019-03-24T07:42:09.222Z,6.10
2019-03-24T07:44:13.831Z,6.10
2019-03-24T07:46:18.648Z,6.00
2019-03-24T07:48:23.019Z,6.10
2019-03-24T07:50:27.367Z,6.20
2019-03-24T07:52:31.742Z,6.30
2019-03-24T07:54:36.084Z,6.50
2019-03-24T07:56:40.480Z,6.80
2019-03-24T07:58:46.069Z,7.00
2019-03-24T08:00:50.572Z,7.10
2019-03-24T08:02:55.060Z,7.20
2019-03-24T08:04:59.562Z,7.30
2019-03-24T08:07:04.051Z,7.40
2019-03-24T08:09:08.512Z,7.40
2019-03-24T08:11:13.903Z,7.30
2019-03-24T08:13:18.535Z,7.50
2019-03-24T08:15:23.039Z,7.60
2019-03-24T08:17:27.519Z,7.50
2019-03-24T08:19:32.076Z,7.60
2019-03-24T08:21:36.474Z,7.80
2019-03-24T08:23:40.903Z,8.00
2019-03-24T08:25:46.164Z,8.10
2019-03-24T08:27:50.663Z,8.00
2019-03-24T08:29:55.356Z,8.00
2019-03-24T08:31:59.890Z,8.10
2019-03-24T08:34:04.487Z,8.20
2019-03-24T08:36:08.845Z,8.30
2019-03-24T08:38:13.211Z,8.40
2019-03-24T08:40:18.150Z,8.60
2019-03-24T08:42:22.594Z,8.60
2019-03-24T08:44:27.154Z,8.60
2019-03-24T08:46:31.502Z,8.80
2019-03-24T08:48:40.778Z,9.00
2019-03-24T08:50:42.250Z,9.20
2019-03-24T08:52:48.055Z,9.30
2019-03-24T08:54:52.411Z,9.40
2019-03-24T08:56:56.829Z,9.70
2019-03-24T08:59:01.177Z,9.80
2019-03-24T09:01:05.713Z,9.90
2019-03-24T09:03:10.082Z,9.50
2019-03-24T09:05:15.003Z,8.80
2019-03-24T09:07:19.887Z,8.30
2019-03-24T09:09:24.285Z,8.70
2019-03-24T09:11:31.521Z,8.90
2019-03-24T09:13:35.148Z,9.10
2019-03-24T09:15:39.488Z,9.30
2019-03-24T09:17:44.375Z,9.70
2019-03-24T09:19:49.070Z,9.90
2019-03-24T09:21:53.516Z,10.10
2019-03-24T09:23:57.873Z,10.70
2019-03-24T09:26:02.329Z,11.00
2019-03-24T09:28:09.157Z,11.30
2019-03-24T09:30:36.231Z,11.40
2019-03-24T09:32:40.579Z,11.30
2019-03-24T09:34:45.455Z,11.70
2019-03-24T09:36:51.359Z,12.10
2019-03-24T09:38:55.734Z,12.70
2019-03-24T09:41:00.134Z,12.90
2019-03-24T09:43:05.422Z,13.20
2019-03-24T09:45:10.263Z,13.40
2019-03-24T09:47:15.125Z,13.80
2019-03-24T09:49:19.744Z,13.80
2019-03-24T09:51:24.218Z,13.80
2019-03-24T09:53:28.651Z,13.60
2019-03-24T09:55:33.069Z,13.60
2019-03-24T09:57:37.493Z,13.90
2019-03-24T09:59:41.935Z,14.00
2019-03-24T10:01:47.002Z,14.10
2019-03-24T10:03:51.440Z,13.90
2019-03-24T10:05:55.791Z,13.80
2019-03-24T10:08:00.215Z,14.00
2019-03-24T10:10:05.696Z,14.20
2019-03-24T10:12:10.096Z,14.30
2019-03-24T10:14:15.408Z,14.20
2019-03-24T10:16:19.966Z,14.50
2019-03-24T10:18:24.320Z,14.80
2019-03-24T10:20:28.664Z,15.10
2019-03-24T10:22:33.107Z,15.30
2019-03-24T10:24:37.483Z,15.40
2019-03-24T10:26:41.975Z,15.50
2019-03-24T10:28:47.181Z,15.40
2019-03-24T10:30:51.527Z,15.40
2019-03-24T10:32:55.976Z,15.40
2019-03-24T10:35:00.578Z,15.70
2019-03-24T10:37:05.082Z,15.60
2019-03-24T10:39:09.497Z,16.10
2019-03-24T10:41:14.120Z,16.20
2019-03-24T10:43:18.941Z,16.70
2019-03-24T10:45:23.384Z,17.10
2019-03-24T10:47:27.823Z,17.90
2019-03-24T10:49:32.163Z,18.90
2019-03-24T10:51:36.518Z,19.40
2019-03-24T10:53:40.891Z,19.00
2019-03-24T10:55:45.759Z,18.90
2019-03-24T10:57:50.347Z,18.40
2019-03-24T10:59:55.468Z,17.70
2019-03-24T11:01:59.943Z,17.40
2019-03-24T11:04:04.367Z,16.80
2019-03-24T11:06:08.728Z,16.00
2019-03-24T11:08:13.279Z,15.20
2019-03-24T11:10:18.311Z,14.40
2019-03-24T11:12:23.067Z,14.00
2019-03-24T11:14:27.875Z,13.90
2019-03-24T11:16:32.227Z,13.70
2019-03-24T11:18:36.587Z,13.50
2019-03-24T11:20:40.936Z,13.30
2019-03-24T11:22:45.968Z,12.90
2019-03-24T11:24:50.566Z,12.70
2019-03-24T11:26:54.991Z,12.90
2019-03-24T11:28:59.415Z,13.00
2019-03-24T11:31:03.875Z,13.10
2019-03-24T11:33:08.301Z,13.00
2019-03-24T11:35:12.818Z,13.00
2019-03-24T11:37:17.719Z,13.00
2019-03-24T11:39:22.076Z,12.90
2019-03-24T11:41:26.813Z,12.60
2019-03-24T11:43:31.314Z,12.60
2019-03-24T11:45:35.820Z,12.70
2019-03-24T11:47:40.398Z,13.00
2019-03-24T11:49:49.169Z,13.10
2019-03-24T11:51:53.629Z,13.10
2019-03-24T11:53:58.108Z,13.10
2019-03-24T11:56:02.991Z,12.80
2019-03-24T11:58:07.539Z,12.60
2019-03-24T12:00:12.436Z,12.30
2019-03-24T12:02:17.364Z,12.10
2019-03-24T12:04:21.783Z,12.10
2019-03-24T12:06:26.227Z,12.10
2019-03-24T12:08:31.042Z,11.90
2019-03-24T12:10:35.747Z,11.80
2019-03-24T12:12:40.419Z,11.70
2019-03-24T12:14:44.977Z,11.60
2019-03-24T12:16:49.756Z,11.40
2019-03-24T12:18:54.118Z,11.30
2019-03-24T12:20:58.573Z,11.30
2019-03-24T12:23:03.105Z,11.30
2019-03-24T12:25:08.704Z,11.40
2019-03-24T12:27:13.441Z,11.50
2019-03-24T12:29:18.643Z,11.60
2019-03-24T12:31:23.000Z,11.60
2019-03-24T12:33:27.530Z,11.70
2019-03-24T12:35:31.955Z,11.80
2019-03-24T12:37:36.457Z,11.80
2019-03-24T12:39:40.844Z,11.80
2019-03-24T12:41:46.036Z,12.10
2019-03-24T12:43:51.520Z,12.50
2019-03-24T12:45:56.291Z,12.50
2019-03-24T12:48:00.639Z,12.90
2019-03-24T12:50:09.170Z,13.10
2019-03-24T12:52:13.142Z,13.00
2019-03-24T12:54:18.374Z,12.50
2019-03-24T12:56:22.799Z,12.00
2019-03-24T12:58:27.243Z,11.80
2019-03-24T13:00:36.634Z,11.90
2019-03-24T13:02:41.059Z,12.30
2019-03-24T13:04:46.267Z,12.80
2019-03-24T13:06:51.099Z,13.10
2019-03-24T13:08:55.536Z,12.80
2019-03-24T13:10:59.907Z,12.90
2019-03-24T13:13:04.532Z,13.20
2019-03-24T13:15:09.542Z,13.50
2019-03-24T13:17:13.999Z,13.50
2019-03-24T13:19:19.137Z,13.20
2019-03-24T13:21:23.562Z,12.70
2019-03-24T13:23:27.950Z,12.40
2019-03-24T13:25:32.319Z,12.20
2019-03-24T13:27:36.657Z,11.90
2019-03-24T13:29:41.092Z,11.60
2019-03-24T13:31:48.096Z,11.60
2019-03-24T13:33:51.880Z,11.40
2019-03-24T13:36:07.601Z,11.40
2019-03-24T13:38:12.428Z,11.50
2019-03-24T13:40:18.175Z,11.60
2019-03-24T13:42:22.991Z,11.70
2019-03-24T13:44:27.431Z,11.90
2019-03-24T13:46:31.856Z,12.10
2019-03-24T13:48:36.680Z,12.10
2019-03-24T13:50:41.183Z,12.10
2019-03-24T13:52:45.731Z,12.10
2019-03-24T13:54:50.680Z,12.40
2019-03-24T13:56:55.151Z,12.80
2019-03-24T13:58:59.518Z,12.80
2019-03-24T14:01:05.594Z,13.00
2019-03-24T14:03:10.022Z,13.50
2019-03-24T14:05:14.553Z,13.80
2019-03-24T14:07:19.491Z,14.20
2019-03-24T14:09:23.955Z,14.50
2019-03-24T14:11:28.442Z,14.80
2019-03-24T14:13:32.937Z,15.10
2019-03-24T14:15:37.415Z,15.00
2019-03-24T14:17:42.223Z,15.40
2019-03-24T14:19:47.141Z,16.30
2019-03-24T14:21:51.891Z,16.10
2019-03-24T14:23:56.400Z,16.60
2019-03-24T14:26:00.858Z,17.90
2019-03-24T14:28:05.320Z,19.90
2019-03-24T14:30:10.427Z,20.20
2019-03-24T14:32:14.792Z,19.20
2019-03-24T14:34:20.186Z,18.40
2019-03-24T14:36:24.603Z,17.80
2019-03-24T14:38:28.974Z,17.00
2019-03-24T14:40:33.391Z,16.40
2019-03-24T14:42:37.827Z,15.90
2019-03-24T14:44:42.285Z,15.40
2019-03-24T14:46:46.832Z,15.00
2019-03-24T14:48:51.591Z,14.90
2019-03-24T14:50:56.075Z,14.60
2019-03-24T14:53:00.443Z,14.20
2019-03-24T14:55:06.303Z,14.70
2019-03-24T14:57:10.818Z,16.80
2019-03-24T14:59:15.186Z,18.70
2019-03-24T15:01:20.339Z,20.10
2019-03-24T15:03:24.883Z,19.50
2019-03-24T15:05:29.306Z,17.90
2019-03-24T15:07:33.743Z,16.50
2019-03-24T15:09:38.458Z,15.40
2019-03-24T15:11:42.811Z,14.40
2019-03-24T15:13:47.769Z,14.10
2019-03-24T15:15:53.828Z,14.10
2019-03-24T15:17:58.682Z,14.00
2019-03-24T15:20:03.139Z,14.50
2019-03-24T15:22:07.835Z,14.60
2019-03-24T15:24:12.298Z,14.20
2019-03-24T15:26:16.978Z,13.80
2019-03-24T15:28:21.947Z,13.30
2019-03-24T15:30:26.362Z,13.00
2019-03-24T15:32:30.787Z,12.70
2019-03-24T15:34:35.243Z,12.40
2019-03-24T15:36:39.735Z,12.00
2019-03-24T15:38:44.079Z,11.90
2019-03-24T15:40:49.732Z,11.70
2019-03-24T15:43:01.377Z,11.70
2019-03-24T15:45:06.143Z,11.70
2019-03-24T15:47:10.611Z,11.70
2019-03-24T15:49:15.113Z,11.80
2019-03-24T15:51:20.044Z,11.80
2019-03-24T15:53:24.504Z,12.00
2019-03-24T15:55:28.931Z,12.30
2019-03-24T15:57:33.362Z,12.60
2019-03-24T15:59:37.715Z,13.10
2019-03-24T16:01:42.059Z,14.20
2019-03-24T16:03:46.662Z,15.20
2019-03-24T16:05:51.422Z,16.50
2019-03-24T16:07:56.003Z,17.40
2019-03-24T16:10:00.379Z,17.40
2019-03-24T16:12:04.890Z,18.00
2019-03-24T16:14:09.238Z,18.80
2019-03-24T16:16:13.599Z,19.90
2019-03-24T16:18:19.575Z,20.10
2019-03-24T16:20:24.084Z,19.60
2019-03-24T16:22:28.583Z,19.30
2019-03-24T16:24:33.144Z,19.40
2019-03-24T16:26:37.686Z,18.10
2019-03-24T16:28:42.124Z,17.70
2019-03-24T16:30:46.567Z,17.30
2019-03-24T16:32:51.863Z,17.30
2019-03-24T16:34:56.280Z,17.10
2019-03-24T16:37:00.650Z,16.60
2019-03-24T16:39:06.887Z,15.70
2019-03-24T16:41:11.311Z,15.20
2019-03-24T16:43:16.874Z,15.50
2019-03-24T16:45:22.119Z,15.60
2019-03-24T16:47:27.009Z,16.00
2019-03-24T16:49:31.691Z,15.90
2019-03-24T16:51:39.109Z,16.30
2019-03-24T16:53:42.294Z,15.70
2019-03-24T16:55:46.795Z,15.30
2019-03-24T16:57:51.463Z,14.70
2019-03-24T16:59:55.808Z,13.80
2019-03-24T17:02:00.526Z,13.40
2019-03-24T17:04:05.144Z,13.20
2019-03-24T17:06:10.220Z,13.20
2019-03-24T17:08:14.876Z,13.30
2019-03-24T17:10:19.414Z,13.40
2019-03-24T17:12:23.841Z,13.10
2019-03-24T17:14:28.271Z,12.60
2019-03-24T17:16:32.677Z,12.10
2019-03-24T17:18:37.423Z,11.80
2019-03-24T17:20:41.925Z,11.60
2019-03-24T17:22:46.274Z,11.50
2019-03-24T17:24:51.080Z,11.30
2019-03-24T17:26:55.519Z,11.10
2019-03-24T17:28:59.945Z,10.80
2019-03-24T17:31:23.443Z,10.60
2019-03-24T17:33:27.975Z,10.30
2019-03-24T17:35:32.399Z,10.10
2019-03-24T17:37:36.900Z,10.00
2019-03-24T17:39:41.272Z,9.80
2019-03-24T17:41:46.249Z,9.70
2019-03-24T17:43:51.043Z,9.60
2019-03-24T17:45:55.473Z,9.40
2019-03-24T17:48:00.003Z,9.20
2019-03-24T17:50:04.956Z,9.10
2019-03-24T17:52:09.397Z,8.90
2019-03-24T17:54:13.740Z,8.80
2019-03-24T17:56:18.338Z,8.60
2019-03-24T17:58:23.407Z,8.50
2019-03-24T18:00:42.634Z,8.40
2019-03-24T18:02:46.992Z,8.40
2019-03-24T18:04:53.311Z,8.30
2019-03-24T18:06:57.860Z,8.20
2019-03-24T18:09:02.465Z,8.10
2019-03-24T18:11:07.180Z,8.00
2019-03-24T18:13:11.689Z,7.90
2019-03-24T18:15:16.913Z,7.90
2019-03-24T18:17:22.666Z,7.80
2019-03-24T18:19:27.532Z,7.80
2019-03-24T18:21:31.926Z,7.80
2019-03-24T18:23:36.737Z,7.70
2019-03-24T18:25:41.399Z,7.60
2019-03-24T18:27:45.801Z,7.50
2019-03-24T18:29:50.876Z,7.50
2019-03-24T18:31:55.459Z,7.50
2019-03-24T18:33:59.973Z,7.40
2019-03-24T18:36:04.455Z,7.40
2019-03-24T18:38:08.954Z,7.40
2019-03-24T18:40:13.879Z,7.20
2019-03-24T18:42:18.290Z,7.20
2019-03-24T18:44:23.086Z,7.20
2019-03-24T18:46:27.579Z,7.10
2019-03-24T18:48:32.075Z,7.00
2019-03-24T18:50:36.530Z,7.00
2019-03-24T18:52:40.985Z,6.90
2019-03-24T18:54:45.317Z,6.80
2019-03-24T18:56:49.963Z,6.80
2019-03-24T18:58:54.568Z,6.70
2019-03-24T19:00:59.135Z,6.60
2019-03-24T19:03:03.615Z,6.60
2019-03-24T19:05:08.172Z,6.50
2019-03-24T19:07:12.510Z,6.30
2019-03-24T19:09:16.842Z,6.20
2019-03-24T19:11:21.900Z,6.00
2019-03-24T19:13:26.354Z,5.80
2019-03-24T19:15:30.844Z,5.60
2019-03-24T19:17:35.399Z,5.40
2019-03-24T19:19:39.912Z,5.30
2019-03-24T19:21:44.988Z,5.30
2019-03-24T19:23:49.566Z,5.40
2019-03-24T19:25:54.444Z,5.70
2019-03-24T19:27:58.853Z,6.00
2019-03-24T19:30:03.851Z,5.90
2019-03-24T19:32:08.660Z,6.00
2019-03-24T19:34:13.062Z,6.00
2019-03-24T19:36:17.495Z,6.00
2019-03-24T19:38:23.491Z,5.90
2019-03-24T19:40:29.390Z,5.90
2019-03-24T19:42:33.797Z,5.70
2019-03-24T19:44:38.176Z,5.60
2019-03-24T19:46:42.715Z,5.50
2019-03-24T19:48:47.184Z,5.30
2019-03-24T19:50:52.292Z,5.10
2019-03-24T19:52:56.717Z,4.90
2019-03-24T19:55:01.174Z,4.80
2019-03-24T19:57:05.677Z,4.60
2019-03-24T19:59:10.008Z,4.50
2019-03-24T20:01:14.441Z,4.50
2019-03-24T20:03:18.859Z,4.40
2019-03-24T20:05:28.643Z,4.30
2019-03-24T20:07:33.128Z,4.30
2019-03-24T20:09:37.568Z,4.30
2019-03-24T20:11:42.044Z,4.40
2019-03-24T20:13:46.483Z,4.60
2019-03-24T20:15:55.223Z,4.70
2019-03-24T20:17:59.645Z,4.70
2019-03-24T20:20:06.454Z,4.80
2019-03-24T20:22:10.588Z,4.80
2019-03-24T20:24:15.023Z,5.00
2019-03-24T20:26:19.430Z,5.30
2019-03-24T20:28:24.751Z,5.40
2019-03-24T20:30:29.099Z,5.40
2019-03-24T20:32:33.683Z,5.40
2019-03-24T20:34:38.346Z,5.40
2019-03-24T20:36:42.719Z,5.40
2019-03-24T20:38:47.125Z,5.20
2019-03-24T20:40:52.329Z,5.20
2019-03-24T20:42:56.915Z,5.10
2019-03-24T20:45:01.415Z,5.10
2019-03-24T20:47:05.976Z,5.10
2019-03-24T20:49:10.307Z,5.10
2019-03-24T20:51:14.643Z,5.00
2019-03-24T20:53:19.013Z,4.90
2019-03-24T20:55:30.142Z,4.90
2019-03-24T20:57:34.560Z,4.80
2019-03-24T20:59:38.907Z,4.70
2019-03-24T21:01:43.263Z,4.60
2019-03-24T21:03:47.819Z,4.60
2019-03-24T21:05:53.209Z,4.70
2019-03-24T21:07:57.715Z,4.60
2019-03-24T21:10:02.220Z,4.60
2019-03-24T21:12:06.663Z,4.50
2019-03-24T21:14:11.071Z,4.40
2019-03-24T21:16:38.521Z,4.40
2019-03-24T21:18:42.919Z,4.30
2019-03-24T21:20:47.380Z,4.30
2019-03-24T21:22:52.439Z,4.30
2019-03-24T21:24:57.343Z,4.20
2019-03-24T21:27:01.690Z,4.10
2019-03-24T21:29:06.124Z,4.30
2019-03-24T21:31:10.563Z,4.30
2019-03-24T21:33:14.987Z,4.30
2019-03-24T21:35:19.324Z,4.20
2019-03-24T21:37:24.719Z,4.10
2019-03-24T21:39:29.061Z,4.10
2019-03-24T21:41:33.472Z,4.00
2019-03-24T21:43:38.022Z,3.90
2019-03-24T21:45:42.355Z,3.90
2019-03-24T21:47:46.771Z,3.80
2019-03-24T21:49:51.619Z,3.80
2019-03-24T21:51:56.252Z,3.80
2019-03-24T21:54:00.596Z,3.90
2019-03-24T21:56:05.099Z,4.00
2019-03-24T21:58:09.523Z,4.10
2019-03-24T22:00:15.703Z,4.20
2019-03-24T22:02:20.154Z,4.30
2019-03-24T22:04:25.083Z,4.30
2019-03-24T22:06:29.511Z,4.40
2019-03-24T22:08:33.883Z,4.30
2019-03-24T22:10:38.367Z,4.10
2019-03-24T22:12:42.802Z,4.00
2019-03-24T22:14:47.191Z,4.00
2019-03-24T22:16:51.940Z,3.90
2019-03-24T22:18:56.516Z,3.80
2019-03-24T22:21:00.950Z,3.80
2019-03-24T22:23:05.451Z,3.80
2019-03-24T22:25:10.456Z,3.70
2019-03-24T22:27:14.808Z,3.80
2019-03-24T22:29:19.219Z,3.70
2019-03-24T22:31:24.347Z,3.70
2019-03-24T22:33:28.847Z,3.80
2019-03-24T22:35:33.196Z,3.80
2019-03-24T22:37:37.775Z,3.90
2019-03-24T22:39:42.199Z,4.00
2019-03-24T22:41:46.619Z,4.00
2019-03-24T22:43:51.109Z,4.10
2019-03-24T22:45:55.958Z,4.10
2019-03-24T22:48:00.304Z,4.10
2019-03-24T22:50:06.123Z,4.00
2019-03-24T22:52:10.466Z,4.00
2019-03-24T22:54:14.829Z,4.00
2019-03-24T22:56:19.246Z,4.00
2019-03-24T22:58:24.136Z,4.00
2019-03-24T23:00:59.802Z,4.00
2019-03-24T23:03:04.287Z,4.00
2019-03-24T23:05:08.844Z,4.00
2019-03-24T23:07:13.275Z,4.00
2019-03-24T23:09:17.755Z,3.90
2019-03-24T23:11:22.922Z,3.90
2019-03-24T23:13:27.441Z,3.80
2019-03-24T23:15:31.771Z,3.80
2019-03-24T23:17:36.194Z,3.60
2019-03-24T23:19:40.654Z,3.60
2019-03-24T23:21:45.058Z,3.60
2019-03-24T23:23:49.683Z,3.60
2019-03-24T23:25:55.346Z,3.50
2019-03-24T23:27:59.760Z,3.40
2019-03-24T23:30:05.316Z,3.30
2019-03-24T23:32:09.892Z,3.30
2019-03-24T23:34:14.391Z,3.20
2019-03-24T23:36:37.694Z,3.20
2019-03-24T23:38:42.051Z,3.10
2019-03-24T23:40:46.409Z,3.10
2019-03-24T23:42:50.868Z,3.10
2019-03-24T23:44:55.679Z,3.10
2019-03-24T23:47:00.171Z,3.00
2019-03-24T23:49:04.609Z,3.20
2019-03-24T23:51:08.960Z,3.20
2019-03-24T23:53:13.376Z,3.20
2019-03-24T23:55:17.816Z,3.30
2019-03-24T23:57:22.772Z,3.30
2019-03-24T23:59:27.497Z,3.30
